createdAt,value
2023-04-15T00:01:08.038Z,8.10
2023-04-15T00:11:11.395Z,8.10
2023-04-15T00:21:13.328Z,7.90
2023-04-15T00:31:16.907Z,7.80
2023-04-15T00:41:19.125Z,7.80
2023-04-15T00:51:22.443Z,7.70
2023-04-15T01:01:26.151Z,7.60
2023-04-15T01:11:30.356Z,7.60
2023-04-15T01:21:32.253Z,7.70
2023-04-15T01:31:35.658Z,7.70
2023-04-15T01:41:37.620Z,7.70
2023-04-15T01:51:40.898Z,7.70
2023-04-15T02:01:42.854Z,7.60
2023-04-15T02:11:46.230Z,7.60
2023-04-15T02:21:48.153Z,7.80
2023-04-15T02:31:51.475Z,7.60
2023-04-15T02:41:53.411Z,7.40
2023-04-15T02:51:56.827Z,7.40
2023-04-15T03:01:58.760Z,7.30
2023-04-15T03:12:02.151Z,7.30
2023-04-15T03:22:04.179Z,7.20
2023-04-15T03:32:07.473Z,7.10
2023-04-15T03:42:09.412Z,7.10
2023-04-15T03:52:12.716Z,7.00
2023-04-15T04:02:15.903Z,7.00
2023-04-15T04:12:19.299Z,7.00
2023-04-15T04:22:23.566Z,7.10
2023-04-15T04:32:26.971Z,7.00
2023-04-15T04:42:29.388Z,7.00
2023-04-15T04:52:32.750Z,6.90
2023-04-15T05:02:35.369Z,7.00
2023-04-15T05:12:38.831Z,7.00
2023-04-15T05:22:40.896Z,7.10
2023-04-15T05:32:44.259Z,7.10
2023-04-15T05:42:46.202Z,7.10
2023-04-15T05:52:49.514Z,7.20
2023-04-15T06:02:51.537Z,7.20
2023-04-15T06:12:54.948Z,7.50
2023-04-15T06:22:57.713Z,7.60
2023-04-15T06:33:01.115Z,7.50
2023-04-15T06:43:03.076Z,7.50
2023-04-15T06:53:06.369Z,7.70
2023-04-15T07:03:08.559Z,7.80
2023-04-15T07:13:11.908Z,7.90
2023-04-15T07:23:13.835Z,7.90
2023-04-15T07:33:17.125Z,7.90
2023-04-15T07:43:19.093Z,8.00
2023-04-15T07:53:22.458Z,8.00
2023-04-15T08:03:25.272Z,8.00
2023-04-15T08:13:28.703Z,8.10
2023-04-15T08:23:30.630Z,8.40
2023-04-15T08:33:34.081Z,8.60
2023-04-15T08:43:38.377Z,8.90
2023-04-15T08:53:42.827Z,8.90
2023-04-15T09:03:45.607Z,9.30
2023-04-15T09:13:49.344Z,9.70
2023-04-15T09:24:00.342Z,9.70
2023-04-15T09:34:04.133Z,9.90
2023-04-15T09:44:06.794Z,10.10
2023-04-15T10:16:16.706Z,11.40
2023-04-15T10:26:20.244Z,11.20
2023-04-15T10:47:01.212Z,11.20
2023-04-15T10:57:15.596Z,11.30
2023-04-15T11:18:48.722Z,11.50
2023-04-15T12:11:49.143Z,15.30
2023-04-15T12:32:55.713Z,14.30
2023-04-15T12:42:57.684Z,14.60
2023-04-15T13:04:55.096Z,14.60
2023-04-15T13:14:58.407Z,15.30
2023-04-15T13:25:00.402Z,14.60
2023-04-15T13:46:07.973Z,15.50
2023-04-15T14:07:28.851Z,15.20
2023-04-15T14:18:05.054Z,15.50
2023-04-15T14:28:08.465Z,15.60
2023-04-15T14:38:11.938Z,16.40
2023-04-15T14:48:16.687Z,17.10
2023-04-15T14:58:18.636Z,16.10
2023-04-15T15:08:21.959Z,15.50
2023-04-15T15:18:23.929Z,15.00
2023-04-15T15:38:42.125Z,14.70
2023-04-15T16:10:07.352Z,13.80
2023-04-15T16:20:09.965Z,14.40
2023-04-15T16:30:14.391Z,14.00
2023-04-15T16:40:16.416Z,14.00
2023-04-15T16:50:19.900Z,13.60
2023-04-15T17:00:23.201Z,13.30
2023-04-15T17:10:27.095Z,13.50
2023-04-15T17:20:30.252Z,13.60
2023-04-15T17:30:34.120Z,13.30
2023-04-15T17:40:36.109Z,13.00
2023-04-15T17:50:39.436Z,12.70
2023-04-15T18:00:41.655Z,12.50
2023-04-15T18:10:47.806Z,12.30
2023-04-15T18:20:49.743Z,12.30
2023-04-15T18:30:53.361Z,12.30
2023-04-15T18:40:55.336Z,12.30
2023-04-15T18:50:58.706Z,12.10
2023-04-15T19:01:00.666Z,12.00
2023-04-15T19:11:04.004Z,11.90
2023-04-15T19:21:06.343Z,11.80
2023-04-15T19:31:09.758Z,11.70
2023-04-15T19:41:11.722Z,11.70
2023-04-15T19:51:15.084Z,11.50
2023-04-15T20:01:17.024Z,11.50
2023-04-15T20:11:20.362Z,11.30
2023-04-15T20:21:22.273Z,10.90
2023-04-15T20:31:25.605Z,10.60
2023-04-15T20:41:27.573Z,10.40
2023-04-15T20:51:30.871Z,10.20
2023-04-15T21:01:32.988Z,10.20
2023-04-15T21:21:41.312Z,10.30
2023-04-15T21:31:44.659Z,10.20
2023-04-15T21:41:46.883Z,10.10
2023-04-15T21:51:50.259Z,10.00
2023-04-15T22:01:52.242Z,9.90
2023-04-15T22:11:55.622Z,9.70
2023-04-15T22:21:57.545Z,9.40
2023-04-15T22:32:00.946Z,9.00
2023-04-15T22:42:02.972Z,8.80
2023-04-15T22:52:06.989Z,8.60
2023-04-15T23:02:09.972Z,8.40
2023-04-15T23:12:14.088Z,8.30
2023-04-15T23:22:16.088Z,8.20
2023-04-15T23:32:19.967Z,8.10
2023-04-15T23:42:21.936Z,8.00
2023-04-15T23:52:25.244Z,7.90
